createdAt,value
2023-05-14T00:00:59.757Z,8.50
2023-05-14T00:01:59.690Z,8.80
2023-05-14T00:02:59.798Z,10.30
2023-05-14T00:03:59.807Z,12.00
2023-05-14T00:04:59.679Z,10.50
2023-05-14T00:05:59.774Z,9.90
2023-05-14T00:06:59.643Z,14.50
2023-05-14T00:07:59.625Z,9.60
2023-05-14T00:08:59.628Z,10.90
2023-05-14T00:09:59.628Z,10.40
2023-05-14T00:10:59.775Z,11.10
2023-05-14T00:11:59.595Z,9.70
2023-05-14T00:12:59.616Z,11.30
2023-05-14T00:13:59.573Z,10.50
2023-05-14T00:14:59.613Z,11.00
2023-05-14T00:15:59.670Z,11.00
2023-05-14T00:16:59.599Z,9.60
2023-05-14T00:17:59.597Z,13.40
2023-05-14T00:18:59.581Z,12.40
2023-05-14T00:19:59.539Z,9.80
2023-05-14T00:20:59.580Z,11.50
2023-05-14T00:21:59.516Z,12.00
2023-05-14T00:22:59.541Z,14.50
2023-05-14T00:23:59.530Z,10.60
2023-05-14T00:24:59.526Z,11.00
2023-05-14T00:25:59.498Z,11.40
2023-05-14T00:26:59.526Z,12.30
2023-05-14T00:27:59.500Z,9.60
2023-05-14T00:28:59.493Z,11.00
2023-05-14T00:29:59.506Z,10.70
2023-05-14T00:30:59.500Z,11.40
2023-05-14T00:31:59.453Z,10.60
2023-05-14T00:32:59.487Z,11.70
2023-05-14T00:33:59.456Z,11.50
2023-05-14T00:34:59.463Z,11.40
2023-05-14T00:35:59.440Z,12.60
2023-05-14T00:36:59.484Z,12.20
2023-05-14T00:37:59.409Z,11.10
2023-05-14T00:38:59.422Z,13.20
2023-05-14T00:39:59.414Z,13.40
2023-05-14T00:40:59.422Z,14.50
2023-05-14T00:41:59.429Z,13.50
2023-05-14T00:42:59.419Z,11.80
2023-05-14T00:43:59.395Z,12.70
2023-05-14T00:44:59.390Z,10.50
2023-05-14T00:45:59.395Z,12.00
2023-05-14T00:46:59.498Z,12.40
2023-05-14T00:47:59.356Z,15.20
2023-05-14T00:48:59.367Z,12.60
2023-05-14T00:49:59.328Z,12.70
2023-05-14T00:50:59.382Z,13.00
2023-05-14T00:51:59.320Z,13.00
2023-05-14T00:52:59.346Z,11.20
2023-05-14T00:53:59.306Z,12.30
2023-05-14T00:54:59.324Z,12.10
2023-05-14T00:55:59.297Z,13.40
2023-05-14T00:56:59.322Z,13.40
2023-05-14T00:57:59.325Z,12.70
2023-05-14T00:58:59.309Z,12.20
2023-05-14T00:59:59.275Z,12.40
2023-05-14T01:00:59.310Z,11.90
2023-05-14T01:01:59.258Z,11.90
2023-05-14T01:02:59.414Z,11.40
2023-05-14T01:03:59.409Z,12.50
2023-05-14T01:04:59.300Z,13.40
2023-05-14T01:05:59.229Z,12.50
2023-05-14T01:06:59.248Z,13.80
2023-05-14T01:07:59.253Z,10.90
2023-05-14T01:08:59.259Z,13.00
2023-05-14T01:09:59.220Z,14.30
2023-05-14T01:10:59.220Z,13.90
2023-05-14T01:11:59.200Z,12.40
2023-05-14T01:12:59.244Z,13.00
2023-05-14T01:13:59.214Z,12.20
2023-05-14T01:14:59.198Z,11.50
2023-05-14T01:15:59.252Z,14.50
2023-05-14T01:16:59.269Z,14.00
2023-05-14T01:17:59.253Z,11.90
2023-05-14T01:18:59.217Z,15.50
2023-05-14T01:19:59.150Z,13.30
2023-05-14T01:20:59.175Z,11.50
2023-05-14T01:21:59.154Z,13.70
2023-05-14T01:22:59.159Z,14.10
2023-05-14T01:23:59.192Z,12.70
2023-05-14T01:24:59.145Z,14.90
2023-05-14T01:25:59.147Z,13.10
2023-05-14T01:26:59.149Z,13.40
2023-05-14T01:27:59.108Z,13.40
2023-05-14T01:28:59.125Z,13.30
2023-05-14T01:29:59.135Z,15.10
2023-05-14T01:30:59.128Z,12.90
2023-05-14T01:31:59.116Z,12.20
2023-05-14T01:32:59.174Z,14.90
2023-05-14T01:33:59.087Z,13.80
2023-05-14T01:34:59.105Z,12.70
2023-05-14T01:35:59.096Z,11.90
2023-05-14T01:36:59.091Z,12.80
2023-05-14T01:37:59.044Z,15.10
2023-05-14T01:38:59.061Z,12.50
2023-05-14T01:39:59.028Z,15.40
2023-05-14T01:40:59.056Z,13.60
2023-05-14T01:41:59.026Z,13.00
2023-05-14T01:42:59.020Z,13.40
2023-05-14T01:43:59.023Z,13.20
2023-05-14T01:44:59.019Z,14.20
2023-05-14T01:45:59.057Z,15.30
2023-05-14T01:46:59.000Z,13.20
2023-05-14T01:47:59.028Z,13.00
2023-05-14T01:48:59.007Z,13.20
2023-05-14T01:49:58.974Z,14.00
2023-05-14T01:50:58.980Z,12.60
2023-05-14T01:51:58.971Z,15.00
2023-05-14T01:52:58.961Z,15.30
2023-05-14T01:53:58.957Z,14.10
2023-05-14T01:54:58.953Z,15.40
2023-05-14T01:55:58.958Z,14.40
2023-05-14T01:56:58.963Z,14.60
2023-05-14T01:57:58.954Z,14.70
2023-05-14T01:58:58.916Z,13.80
2023-05-14T01:59:58.889Z,12.50
2023-05-14T02:00:58.963Z,12.50
2023-05-14T02:01:58.984Z,13.60
2023-05-14T02:02:58.970Z,12.70
2023-05-14T02:03:58.939Z,15.80
2023-05-14T02:04:58.923Z,12.50
2023-05-14T02:05:58.884Z,12.50
2023-05-14T02:06:58.857Z,14.10
2023-05-14T02:07:58.882Z,14.40
2023-05-14T02:08:58.850Z,13.90
2023-05-14T02:09:58.830Z,13.10
2023-05-14T02:10:58.837Z,14.60
2023-05-14T02:11:58.825Z,14.20
2023-05-14T02:12:58.874Z,11.80
2023-05-14T02:13:58.842Z,12.30
2023-05-14T02:14:58.809Z,12.50
2023-05-14T02:15:58.837Z,12.30
2023-05-14T02:16:58.824Z,14.20
2023-05-14T02:17:58.831Z,16.70
2023-05-14T02:18:58.855Z,13.70
2023-05-14T02:19:58.842Z,14.80
2023-05-14T02:20:58.809Z,13.40
2023-05-14T02:21:58.876Z,13.60
2023-05-14T02:22:58.823Z,13.20
2023-05-14T02:23:58.847Z,14.80
2023-05-14T02:24:58.849Z,14.00
2023-05-14T02:25:58.723Z,15.40
2023-05-14T02:26:58.757Z,14.00
2023-05-14T02:27:58.740Z,17.10
2023-05-14T02:28:58.737Z,15.00
2023-05-14T02:29:58.714Z,14.90
2023-05-14T02:30:58.738Z,18.00
2023-05-14T02:31:58.714Z,17.80
2023-05-14T02:32:58.759Z,18.10
2023-05-14T02:33:58.699Z,16.50
2023-05-14T02:34:58.703Z,16.40
2023-05-14T02:35:58.674Z,17.30
2023-05-14T02:36:58.682Z,16.00
2023-05-14T02:37:58.642Z,17.90
2023-05-14T02:38:58.653Z,15.40
2023-05-14T02:39:58.703Z,17.40
2023-05-14T02:40:58.641Z,19.50
2023-05-14T02:41:58.664Z,17.70
2023-05-14T02:42:58.640Z,17.90
2023-05-14T02:43:58.607Z,17.80
2023-05-14T02:44:58.626Z,16.10
2023-05-14T02:45:58.629Z,15.80
2023-05-14T02:46:58.653Z,17.10
2023-05-14T02:47:58.633Z,16.60
2023-05-14T02:48:58.605Z,19.90
2023-05-14T02:49:58.567Z,18.30
2023-05-14T02:50:58.621Z,19.80
2023-05-14T02:51:58.564Z,22.00
2023-05-14T02:52:58.563Z,20.70
2023-05-14T02:53:58.552Z,19.30
2023-05-14T02:54:58.565Z,18.80
2023-05-14T02:55:58.545Z,19.70
2023-05-14T02:56:58.542Z,18.30
2023-05-14T02:57:58.513Z,20.20
2023-05-14T02:58:58.566Z,17.50
2023-05-14T02:59:58.523Z,18.30
2023-05-14T03:00:58.562Z,16.70
2023-05-14T03:01:58.540Z,19.90
2023-05-14T03:02:58.520Z,17.70
2023-05-14T03:03:58.479Z,16.50
2023-05-14T03:04:58.540Z,18.50
2023-05-14T03:05:58.461Z,19.00
2023-05-14T03:06:58.496Z,19.60
2023-05-14T03:07:58.465Z,19.30
2023-05-14T03:08:58.460Z,20.30
2023-05-14T03:09:58.434Z,16.50
2023-05-14T03:10:58.451Z,16.40
2023-05-14T03:11:58.450Z,20.20
2023-05-14T03:12:58.447Z,21.10
2023-05-14T03:13:58.405Z,22.70
2023-05-14T03:14:58.436Z,21.40
2023-05-14T03:15:58.410Z,21.50
2023-05-14T03:16:58.469Z,23.40
2023-05-14T03:17:58.431Z,16.50
2023-05-14T03:18:58.465Z,17.20
2023-05-14T03:19:58.378Z,16.80
2023-05-14T03:20:58.400Z,20.10
2023-05-14T03:21:58.400Z,20.40
2023-05-14T03:22:58.417Z,18.70
2023-05-14T03:23:58.357Z,20.00
2023-05-14T03:24:58.374Z,18.60
2023-05-14T03:25:58.352Z,19.90
2023-05-14T03:26:58.349Z,19.00
2023-05-14T03:27:58.328Z,20.00
2023-05-14T03:28:58.349Z,20.40
2023-05-14T03:29:58.304Z,21.20
2023-05-14T03:30:58.409Z,20.60
2023-05-14T03:31:58.316Z,21.20
2023-05-14T03:32:58.375Z,20.40
2023-05-14T03:33:58.317Z,20.90
2023-05-14T03:34:58.318Z,22.00
2023-05-14T03:35:58.279Z,22.90
2023-05-14T03:36:58.277Z,21.90
2023-05-14T03:37:58.265Z,18.80
2023-05-14T03:38:58.289Z,18.30
2023-05-14T03:39:58.264Z,20.00
2023-05-14T03:40:58.264Z,20.40
2023-05-14T03:41:58.222Z,22.00
2023-05-14T03:42:58.263Z,22.00
2023-05-14T03:43:58.217Z,23.40
2023-05-14T03:44:58.227Z,22.50
2023-05-14T03:45:58.226Z,26.50
2023-05-14T03:46:58.211Z,22.30
2023-05-14T03:47:58.340Z,23.30
2023-05-14T03:48:58.351Z,25.60
2023-05-14T03:49:58.196Z,23.70
2023-05-14T03:50:58.179Z,22.20
2023-05-14T03:51:58.182Z,24.80
2023-05-14T03:52:58.174Z,22.90
2023-05-14T03:53:58.138Z,24.10
2023-05-14T03:54:58.168Z,23.30
2023-05-14T03:55:58.174Z,24.50
2023-05-14T03:56:58.134Z,26.10
2023-05-14T03:57:58.126Z,24.40
2023-05-14T03:58:58.152Z,21.80
2023-05-14T03:59:58.105Z,20.70
2023-05-14T04:00:58.142Z,21.50
2023-05-14T04:01:58.085Z,23.50
2023-05-14T04:02:58.250Z,21.60
2023-05-14T04:03:58.166Z,21.60
2023-05-14T04:04:58.117Z,20.30
2023-05-14T04:05:58.057Z,21.50
2023-05-14T04:06:58.109Z,20.70
2023-05-14T04:07:58.053Z,21.80
2023-05-14T04:08:58.089Z,19.50
2023-05-14T04:09:58.034Z,18.90
2023-05-14T04:10:58.039Z,20.60
2023-05-14T04:11:58.044Z,17.10
2023-05-14T04:12:58.022Z,16.60
2023-05-14T04:13:58.011Z,16.90
2023-05-14T04:14:58.033Z,16.00
2023-05-14T04:15:58.007Z,17.10
2023-05-14T04:16:59.533Z,15.50
2023-05-14T04:17:58.073Z,15.50
2023-05-14T04:18:58.023Z,15.00
2023-05-14T04:19:57.998Z,15.50
2023-05-14T04:20:58.010Z,14.30
2023-05-14T04:21:57.980Z,16.40
2023-05-14T04:22:57.959Z,15.70
2023-05-14T04:23:57.959Z,14.50
2023-05-14T04:24:57.970Z,14.50
2023-05-14T04:25:57.955Z,14.90
2023-05-14T04:26:57.934Z,15.30
2023-05-14T04:27:57.920Z,15.90
2023-05-14T04:28:57.928Z,16.80
2023-05-14T04:29:57.921Z,15.70
2023-05-14T04:30:57.934Z,15.80
2023-05-14T04:31:57.920Z,14.70
2023-05-14T04:32:57.987Z,14.70
2023-05-14T04:33:57.883Z,13.70
2023-05-14T04:34:57.906Z,15.50
2023-05-14T04:35:57.867Z,16.60
2023-05-14T04:36:57.880Z,14.50
2023-05-14T04:37:57.849Z,15.90
2023-05-14T04:38:57.876Z,14.80
2023-05-14T04:39:57.867Z,16.10
2023-05-14T04:40:57.852Z,15.60
2023-05-14T04:41:57.829Z,14.00
2023-05-14T04:42:57.840Z,15.30
2023-05-14T04:43:57.810Z,15.10
2023-05-14T04:44:57.853Z,15.30
2023-05-14T04:45:57.814Z,14.10
2023-05-14T04:46:57.799Z,15.60
2023-05-14T04:47:57.870Z,13.20
2023-05-14T04:48:57.801Z,14.70
2023-05-14T04:49:57.763Z,13.60
2023-05-14T04:50:57.789Z,15.80
2023-05-14T04:51:57.767Z,15.10
2023-05-14T04:52:57.757Z,13.10
2023-05-14T04:53:57.754Z,15.20
2023-05-14T04:54:57.890Z,15.40
2023-05-14T04:55:57.974Z,14.10
2023-05-14T04:56:57.909Z,13.50
2023-05-14T04:57:57.805Z,13.30
2023-05-14T04:58:57.814Z,13.90
2023-05-14T04:59:57.777Z,15.70
2023-05-14T05:00:57.874Z,14.60
2023-05-14T05:01:57.776Z,15.80
2023-05-14T05:02:57.793Z,14.10
2023-05-14T05:03:57.803Z,14.10
2023-05-14T05:04:57.738Z,12.60
2023-05-14T05:05:58.691Z,14.50
2023-05-14T05:06:57.662Z,12.50
2023-05-14T05:07:57.686Z,13.60
2023-05-14T05:08:58.081Z,13.40
2023-05-14T05:09:57.651Z,13.30
2023-05-14T05:10:57.671Z,13.00
2023-05-14T05:11:57.627Z,14.30
2023-05-14T05:12:57.693Z,13.80
2023-05-14T05:13:57.625Z,15.10
2023-05-14T05:14:57.633Z,12.50
2023-05-14T05:15:57.623Z,13.80
2023-05-14T05:16:57.619Z,12.40
2023-05-14T05:17:57.637Z,11.40
2023-05-14T05:18:57.655Z,14.30
2023-05-14T05:19:57.574Z,12.50
2023-05-14T05:20:57.582Z,13.30
2023-05-14T05:21:57.554Z,13.40
2023-05-14T05:22:57.574Z,12.90
2023-05-14T05:23:57.533Z,13.20
2023-05-14T05:24:57.572Z,13.10
2023-05-14T05:25:57.548Z,12.20
2023-05-14T05:26:57.561Z,13.00
2023-05-14T05:27:57.545Z,12.90
2023-05-14T05:28:57.535Z,12.30
2023-05-14T05:29:57.530Z,12.90
2023-05-14T05:30:57.529Z,11.80
2023-05-14T05:31:57.494Z,10.50
2023-05-14T05:32:57.629Z,11.20
2023-05-14T05:33:57.494Z,11.80
2023-05-14T05:34:57.536Z,10.40
2023-05-14T05:35:57.457Z,10.80
2023-05-14T05:36:57.494Z,12.20
2023-05-14T05:37:58.596Z,10.90
2023-05-14T05:38:57.450Z,10.70
2023-05-14T05:39:57.450Z,11.20
2023-05-14T05:40:57.475Z,11.40
2023-05-14T05:41:57.440Z,13.30
2023-05-14T05:42:57.419Z,10.50
2023-05-14T05:43:57.404Z,12.00
2023-05-14T05:44:57.410Z,11.90
2023-05-14T05:45:57.420Z,10.20
2023-05-14T05:46:57.652Z,10.70
2023-05-14T05:47:57.468Z,9.60
2023-05-14T05:48:57.406Z,11.30
2023-05-14T05:49:57.368Z,12.70
2023-05-14T05:50:57.372Z,13.30
2023-05-14T05:52:04.369Z,12.60
2023-05-14T05:52:57.351Z,11.50
2023-05-14T05:53:57.323Z,11.90
2023-05-14T05:54:57.349Z,11.10
2023-05-14T05:55:57.300Z,12.40
2023-05-14T05:56:57.312Z,14.10
2023-05-14T05:57:57.306Z,11.10
2023-05-14T05:58:57.314Z,11.60
2023-05-14T05:59:57.301Z,10.70
2023-05-14T06:00:57.292Z,10.40
2023-05-14T06:01:57.305Z,8.90
2023-05-14T06:02:57.333Z,11.70
2023-05-14T06:03:57.259Z,9.90
2023-05-14T06:04:57.313Z,10.40
2023-05-14T06:05:57.247Z,10.40
2023-05-14T06:06:57.268Z,11.30
2023-05-14T06:07:57.224Z,10.40
2023-05-14T06:08:57.226Z,10.40
2023-05-14T06:09:57.221Z,9.50
2023-05-14T06:10:57.228Z,9.30
2023-05-14T06:11:57.212Z,10.00
2023-05-14T06:12:57.225Z,10.90
2023-05-14T06:13:57.194Z,9.40
2023-05-14T06:14:57.196Z,10.50
2023-05-14T06:15:57.157Z,9.10
2023-05-14T06:16:57.206Z,13.10
2023-05-14T06:17:57.192Z,9.20
2023-05-14T06:18:57.188Z,9.90
2023-05-14T06:19:57.136Z,10.30
2023-05-14T06:20:57.168Z,10.00
2023-05-14T06:21:57.110Z,9.20
2023-05-14T06:22:57.118Z,9.80
2023-05-14T06:23:57.110Z,10.60
2023-05-14T06:24:57.108Z,9.00
2023-05-14T06:25:57.092Z,9.00
2023-05-14T06:26:57.122Z,11.00
2023-05-14T06:27:57.093Z,8.90
2023-05-14T06:28:57.113Z,9.30
2023-05-14T06:29:57.071Z,9.60
2023-05-14T06:30:57.069Z,9.30
2023-05-14T06:31:57.171Z,8.20
2023-05-14T06:32:57.081Z,8.40
2023-05-14T06:33:57.036Z,8.80
2023-05-14T06:34:57.048Z,8.50
2023-05-14T06:35:57.011Z,9.20
2023-05-14T06:36:57.026Z,9.20
2023-05-14T06:37:57.017Z,9.50
2023-05-14T06:38:57.015Z,8.80
2023-05-14T06:39:57.854Z,8.20
2023-05-14T06:40:56.979Z,8.50
2023-05-14T06:41:56.962Z,7.70
2023-05-14T06:42:56.992Z,8.20
2023-05-14T06:43:56.956Z,7.90
2023-05-14T06:44:56.943Z,9.30
2023-05-14T06:45:56.926Z,7.60
2023-05-14T06:46:56.929Z,7.90
2023-05-14T06:47:57.044Z,7.10
2023-05-14T06:48:59.348Z,8.30
2023-05-14T06:49:56.882Z,7.30
2023-05-14T06:50:56.910Z,8.40
2023-05-14T06:51:56.875Z,8.30
2023-05-14T06:52:56.883Z,8.60
2023-05-14T06:53:56.863Z,7.60
2023-05-14T06:54:56.881Z,8.30
2023-05-14T06:55:56.863Z,8.20
2023-05-14T06:56:56.838Z,9.50
2023-05-14T06:57:56.848Z,8.60
2023-05-14T06:58:56.860Z,7.10
2023-05-14T06:59:56.813Z,7.30
2023-05-14T07:00:56.834Z,6.80
2023-05-14T07:01:56.905Z,6.60
2023-05-14T07:02:56.825Z,6.50
2023-05-14T07:03:56.873Z,7.50
2023-05-14T07:04:56.800Z,6.80
2023-05-14T07:05:56.760Z,6.80
2023-05-14T07:06:56.831Z,6.50
2023-05-14T07:07:56.747Z,7.30
2023-05-14T07:08:56.748Z,6.40
2023-05-14T07:09:56.753Z,6.60
2023-05-14T07:10:56.740Z,8.00
2023-05-14T07:11:56.725Z,6.40
2023-05-14T07:12:56.736Z,6.70
2023-05-14T07:13:56.706Z,7.00
2023-05-14T07:14:56.705Z,6.20
2023-05-14T07:15:56.679Z,7.10
2023-05-14T07:16:56.726Z,6.80
2023-05-14T07:17:56.723Z,7.80
2023-05-14T07:18:56.728Z,6.70
2023-05-14T07:19:56.657Z,7.00
2023-05-14T07:20:56.659Z,6.40
2023-05-14T07:21:56.650Z,7.20
2023-05-14T07:22:56.662Z,7.10
2023-05-14T07:23:56.623Z,6.10
2023-05-14T07:24:56.653Z,6.70
2023-05-14T07:25:56.622Z,5.60
2023-05-14T07:26:56.620Z,5.30
2023-05-14T07:27:56.598Z,7.00
2023-05-14T07:28:56.598Z,6.10
2023-05-14T07:29:56.591Z,5.70
2023-05-14T07:30:56.664Z,6.20
2023-05-14T07:31:56.583Z,5.00
2023-05-14T07:32:56.614Z,6.00
2023-05-14T07:33:56.591Z,6.00
2023-05-14T07:34:56.588Z,7.00
2023-05-14T07:35:56.551Z,5.60
2023-05-14T07:36:56.554Z,5.90
2023-05-14T07:37:56.539Z,6.70
2023-05-14T07:38:56.575Z,6.30
2023-05-14T07:39:56.516Z,6.20
2023-05-14T07:40:56.545Z,5.90
2023-05-14T07:41:56.497Z,5.90
2023-05-14T07:42:56.508Z,5.60
2023-05-14T07:43:56.524Z,5.60
2023-05-14T07:44:56.511Z,6.20
2023-05-14T07:45:56.504Z,5.50
2023-05-14T07:46:56.528Z,6.50
2023-05-14T07:47:56.606Z,6.70
2023-05-14T07:48:56.480Z,6.40
2023-05-14T07:49:56.477Z,5.90
2023-05-14T07:50:56.471Z,5.70
2023-05-14T07:51:56.474Z,6.10
2023-05-14T07:52:56.449Z,5.10
2023-05-14T07:53:56.415Z,5.20
2023-05-14T07:54:56.434Z,5.20
2023-05-14T07:55:56.402Z,5.80
2023-05-14T07:56:56.427Z,5.60
2023-05-14T07:57:56.393Z,6.00
2023-05-14T07:58:56.433Z,5.20
2023-05-14T07:59:56.389Z,5.20
2023-05-14T08:00:56.383Z,6.20
2023-05-14T08:01:56.401Z,5.40
2023-05-14T08:02:56.566Z,6.00
2023-05-14T08:03:56.433Z,6.30
2023-05-14T08:04:56.362Z,5.90
2023-05-14T08:05:56.345Z,5.20
2023-05-14T08:06:56.347Z,6.20
2023-05-14T08:07:56.329Z,8.90
2023-05-14T08:08:56.344Z,6.30
2023-05-14T08:09:56.311Z,4.80
2023-05-14T08:10:56.342Z,6.00
2023-05-14T08:11:56.304Z,5.10
2023-05-14T08:12:56.311Z,5.00
2023-05-14T08:13:56.301Z,5.80
2023-05-14T08:14:56.327Z,5.10
2023-05-14T08:15:56.275Z,5.90
2023-05-14T08:16:56.340Z,5.40
2023-05-14T08:17:56.280Z,6.70
2023-05-14T08:18:56.323Z,5.20
2023-05-14T08:19:56.248Z,4.70
2023-05-14T08:20:56.276Z,5.00
2023-05-14T08:21:56.257Z,6.30
2023-05-14T08:22:56.239Z,5.90
2023-05-14T08:23:56.257Z,5.80
2023-05-14T08:24:56.238Z,6.10
2023-05-14T08:25:56.204Z,5.50
2023-05-14T08:26:56.241Z,5.80
2023-05-14T08:27:56.190Z,6.90
2023-05-14T08:28:56.219Z,5.70
2023-05-14T08:29:56.185Z,5.50
2023-05-14T08:30:56.274Z,6.00
2023-05-14T08:31:56.168Z,4.70
2023-05-14T08:32:56.195Z,6.70
2023-05-14T08:33:56.189Z,5.00
2023-05-14T08:34:56.143Z,4.90
2023-05-14T08:35:56.135Z,4.40
2023-05-14T08:36:56.141Z,5.30
2023-05-14T08:37:56.107Z,5.30
2023-05-14T08:38:56.168Z,5.20
2023-05-14T08:39:56.195Z,5.70
2023-05-14T08:40:56.114Z,5.60
2023-05-14T08:41:56.140Z,6.20
2023-05-14T08:42:56.135Z,6.50
2023-05-14T08:43:56.101Z,5.40
2023-05-14T08:44:56.101Z,4.80
2023-05-14T08:45:56.063Z,5.60
2023-05-14T08:46:56.093Z,5.10
2023-05-14T08:47:56.144Z,6.90
2023-05-14T08:48:56.112Z,6.80
2023-05-14T08:49:56.054Z,6.80
2023-05-14T08:50:56.073Z,5.50
2023-05-14T08:51:56.005Z,7.70
2023-05-14T08:52:56.056Z,5.30
2023-05-14T08:53:55.990Z,5.50
2023-05-14T08:54:56.022Z,6.20
2023-05-14T08:55:56.040Z,5.60
2023-05-14T08:56:56.019Z,4.60
2023-05-14T08:57:55.964Z,5.70
2023-05-14T08:58:55.980Z,4.70
2023-05-14T08:59:55.950Z,5.20
2023-05-14T09:00:55.954Z,5.40
2023-05-14T09:01:56.038Z,6.10
2023-05-14T09:02:55.966Z,5.40
2023-05-14T09:03:56.013Z,5.00
2023-05-14T09:04:55.952Z,5.40
2023-05-14T09:05:56.715Z,4.70
2023-05-14T09:06:55.945Z,6.10
2023-05-14T09:07:55.897Z,5.40
2023-05-14T09:08:55.943Z,6.60
2023-05-14T09:09:55.897Z,4.60
2023-05-14T09:10:55.916Z,4.40
2023-05-14T09:11:55.874Z,5.50
2023-05-14T09:12:55.875Z,6.20
2023-05-14T09:13:55.858Z,5.80
2023-05-14T09:14:55.900Z,5.00
2023-05-14T09:15:55.896Z,5.30
2023-05-14T09:16:55.833Z,6.50
2023-05-14T09:17:55.883Z,4.40
2023-05-14T09:18:55.875Z,5.90
2023-05-14T09:19:55.818Z,4.60
2023-05-14T09:20:55.838Z,5.40
2023-05-14T09:21:55.846Z,6.00
2023-05-14T09:22:55.844Z,4.50
2023-05-14T09:23:55.763Z,5.80
2023-05-14T09:24:55.809Z,5.00
2023-05-14T09:25:55.762Z,4.30
2023-05-14T09:26:55.774Z,4.80
2023-05-14T09:27:57.953Z,4.50
2023-05-14T09:28:55.760Z,5.90
2023-05-14T09:29:55.730Z,5.50
2023-05-14T09:30:55.754Z,5.30
2023-05-14T09:31:55.784Z,5.20
2023-05-14T09:32:55.819Z,6.20
2023-05-14T09:33:55.704Z,4.10
2023-05-14T09:34:55.720Z,4.20
2023-05-14T09:35:57.675Z,5.40
2023-05-14T09:36:55.722Z,6.30
2023-05-14T09:37:55.675Z,4.80
2023-05-14T09:38:55.684Z,5.60
2023-05-14T09:39:55.672Z,4.90
2023-05-14T09:40:55.711Z,5.40
2023-05-14T09:41:55.644Z,5.00
2023-05-14T09:42:55.671Z,5.20
2023-05-14T09:43:55.659Z,8.40
2023-05-14T09:44:55.649Z,6.50
2023-05-14T09:45:55.612Z,5.20
2023-05-14T09:46:55.680Z,5.40
2023-05-14T09:47:55.799Z,5.00
2023-05-14T09:48:55.620Z,4.80
2023-05-14T09:49:55.590Z,5.50
2023-05-14T09:50:55.627Z,4.50
2023-05-14T09:51:55.570Z,4.80
2023-05-14T09:52:55.592Z,5.30
2023-05-14T09:53:55.613Z,4.80
2023-05-14T09:54:55.576Z,5.70
2023-05-14T09:55:55.547Z,5.40
2023-05-14T09:56:55.971Z,5.10
2023-05-14T09:57:55.526Z,4.60
2023-05-14T09:58:55.545Z,4.70
2023-05-14T09:59:55.546Z,5.00
2023-05-14T10:00:55.552Z,5.90
2023-05-14T10:01:55.496Z,5.40
2023-05-14T10:02:55.537Z,4.80
2023-05-14T10:03:55.530Z,5.20
2023-05-14T10:04:55.522Z,5.20
2023-05-14T10:05:55.512Z,4.80
2023-05-14T10:06:55.492Z,5.70
2023-05-14T10:07:55.460Z,6.20
2023-05-14T10:08:55.475Z,5.00
2023-05-14T10:09:57.185Z,4.50
2023-05-14T10:10:55.455Z,5.40
2023-05-14T10:11:55.426Z,5.80
2023-05-14T10:12:55.459Z,5.50
2023-05-14T10:13:55.434Z,5.60
2023-05-14T10:14:55.443Z,4.50
2023-05-14T10:15:55.400Z,4.90
2023-05-14T10:16:55.462Z,5.10
2023-05-14T10:17:55.449Z,4.70
2023-05-14T10:18:57.317Z,4.50
2023-05-14T10:19:55.369Z,4.80
2023-05-14T10:20:55.378Z,5.10
2023-05-14T10:21:55.369Z,5.00
2023-05-14T10:22:55.381Z,5.90
2023-05-14T10:23:55.357Z,8.00
2023-05-14T10:24:55.398Z,4.80
2023-05-14T10:25:55.343Z,5.10
2023-05-14T10:26:55.340Z,5.40
2023-05-14T10:27:55.324Z,4.20
2023-05-14T10:28:55.324Z,5.10
2023-05-14T10:29:55.349Z,5.00
2023-05-14T10:30:55.317Z,4.90
2023-05-14T10:31:55.279Z,5.00
2023-05-14T10:32:55.350Z,5.30
2023-05-14T10:33:55.272Z,5.50
2023-05-14T10:34:55.283Z,4.30
2023-05-14T10:35:55.276Z,4.50
2023-05-14T10:36:55.274Z,4.70
2023-05-14T10:37:55.260Z,5.50
2023-05-14T10:38:55.268Z,5.80
2023-05-14T10:39:55.232Z,4.50
2023-05-14T10:40:55.236Z,4.70
2023-05-14T10:41:55.218Z,5.20
2023-05-14T10:42:55.218Z,5.70
2023-05-14T10:43:55.231Z,4.60
2023-05-14T10:44:55.235Z,4.40
2023-05-14T10:45:55.192Z,5.00
2023-05-14T10:46:55.243Z,4.70
2023-05-14T10:47:55.260Z,5.20
2023-05-14T10:48:55.196Z,4.70
2023-05-14T10:49:55.153Z,4.30
2023-05-14T10:50:55.205Z,5.30
2023-05-14T10:51:55.157Z,4.20
2023-05-14T10:52:55.199Z,4.80
2023-05-14T10:53:55.159Z,4.40
2023-05-14T10:54:55.141Z,5.60
2023-05-14T10:55:55.121Z,5.20
2023-05-14T10:56:55.121Z,4.60
2023-05-14T10:57:55.137Z,4.80
2023-05-14T10:58:55.101Z,5.30
2023-05-14T10:59:55.176Z,5.00
2023-05-14T11:00:55.103Z,5.30
2023-05-14T11:01:55.162Z,4.70
2023-05-14T11:02:55.170Z,4.80
2023-05-14T11:03:55.163Z,4.50
2023-05-14T11:04:55.063Z,4.90
2023-05-14T11:05:55.067Z,5.40
2023-05-14T11:06:55.070Z,4.70
2023-05-14T11:07:55.032Z,5.90
2023-05-14T11:08:55.045Z,5.40
2023-05-14T11:09:55.015Z,5.30
2023-05-14T11:10:55.036Z,4.40
2023-05-14T11:11:55.010Z,5.50
2023-05-14T11:12:55.021Z,4.50
2023-05-14T11:13:55.037Z,4.30
2023-05-14T11:14:54.989Z,5.30
2023-05-14T11:15:54.978Z,4.80
2023-05-14T11:16:55.000Z,4.30
2023-05-14T11:17:54.988Z,5.20
2023-05-14T11:18:55.300Z,4.30
2023-05-14T11:19:54.946Z,5.10
2023-05-14T11:20:54.953Z,5.00
2023-05-14T11:21:54.979Z,5.20
2023-05-14T11:22:54.946Z,4.50
2023-05-14T11:23:54.963Z,5.30
2023-05-14T11:24:54.951Z,5.70
2023-05-14T11:25:54.978Z,4.50
2023-05-14T11:26:54.915Z,5.20
2023-05-14T11:27:54.904Z,4.00
2023-05-14T11:28:54.907Z,4.50
2023-05-14T11:29:54.867Z,5.00
2023-05-14T11:30:54.916Z,4.20
2023-05-14T11:31:54.865Z,4.40
2023-05-14T11:32:54.934Z,6.10
2023-05-14T11:33:54.883Z,5.00
2023-05-14T11:34:54.866Z,5.10
2023-05-14T11:35:54.838Z,4.90
2023-05-14T11:36:54.857Z,4.40
2023-05-14T11:37:54.825Z,5.10
2023-05-14T11:38:54.860Z,3.90
2023-05-14T11:39:54.807Z,4.80
2023-05-14T11:40:54.816Z,5.50
2023-05-14T11:41:54.781Z,4.10
2023-05-14T11:42:54.790Z,5.00
2023-05-14T11:43:54.777Z,4.20
2023-05-14T11:44:54.803Z,5.00
2023-05-14T11:45:54.775Z,5.60
2023-05-14T11:46:54.773Z,4.60
2023-05-14T11:47:54.831Z,5.40
2023-05-14T11:48:54.771Z,5.90
2023-05-14T11:49:54.742Z,4.00
2023-05-14T11:50:54.745Z,5.10
2023-05-14T11:51:54.709Z,7.30
2023-05-14T11:52:54.761Z,5.10
2023-05-14T11:53:54.744Z,7.50
2023-05-14T11:54:54.722Z,4.70
2023-05-14T11:55:54.690Z,4.80
2023-05-14T11:56:54.691Z,7.00
2023-05-14T11:57:54.684Z,4.40
2023-05-14T11:58:54.677Z,5.40
2023-05-14T11:59:54.693Z,6.60
2023-05-14T12:00:54.654Z,5.00
2023-05-14T12:01:54.668Z,3.60
2023-05-14T12:02:54.712Z,4.00
2023-05-14T12:03:54.678Z,4.40
2023-05-14T12:04:54.679Z,4.20
2023-05-14T12:05:54.635Z,4.90
2023-05-14T12:06:54.615Z,4.80
2023-05-14T12:07:54.598Z,5.20
2023-05-14T12:08:54.618Z,5.20
2023-05-14T12:09:54.587Z,5.40
2023-05-14T12:10:54.624Z,4.10
2023-05-14T12:11:54.574Z,4.70
2023-05-14T12:12:54.631Z,5.30
2023-05-14T12:13:54.557Z,6.20
2023-05-14T12:14:54.557Z,5.50
2023-05-14T12:15:54.593Z,5.20
2023-05-14T12:16:54.574Z,4.40
2023-05-14T12:17:54.573Z,5.10
2023-05-14T12:18:54.570Z,4.90
2023-05-14T12:19:54.518Z,5.00
2023-05-14T12:20:54.558Z,3.90
2023-05-14T12:21:54.534Z,4.90
2023-05-14T12:22:54.516Z,4.70
2023-05-14T12:23:54.497Z,4.90
2023-05-14T12:24:54.540Z,4.20
2023-05-14T12:25:54.493Z,6.30
2023-05-14T12:26:54.540Z,5.90
2023-05-14T12:27:54.470Z,5.40
2023-05-14T12:28:54.490Z,5.60
2023-05-14T12:29:54.454Z,4.60
2023-05-14T12:30:54.459Z,5.20
2023-05-14T12:31:54.470Z,4.50
2023-05-14T12:32:54.573Z,5.40
2023-05-14T12:33:54.423Z,4.90
2023-05-14T12:34:54.473Z,3.90
2023-05-14T12:35:54.446Z,5.70
2023-05-14T12:36:54.442Z,4.10
2023-05-14T12:37:54.425Z,4.20
2023-05-14T12:38:54.451Z,4.60
2023-05-14T12:39:54.379Z,5.10
2023-05-14T12:40:54.398Z,3.90
2023-05-14T12:41:54.371Z,5.20
2023-05-14T12:42:56.577Z,7.30
2023-05-14T12:43:54.394Z,3.70
2023-05-14T12:44:54.366Z,4.40
2023-05-14T12:45:54.398Z,6.10
2023-05-14T12:46:54.415Z,5.20
2023-05-14T12:47:54.366Z,7.70
2023-05-14T12:48:54.352Z,5.00
2023-05-14T12:49:54.314Z,6.10
2023-05-14T12:50:54.361Z,5.30
2023-05-14T12:52:03.176Z,5.40
2023-05-14T12:52:55.370Z,5.30
2023-05-14T12:53:54.316Z,5.00
2023-05-14T12:54:54.400Z,4.60
2023-05-14T12:55:54.311Z,4.40
2023-05-14T12:56:54.280Z,4.50
2023-05-14T12:57:54.261Z,5.90
2023-05-14T12:58:54.285Z,5.80
2023-05-14T12:59:54.248Z,5.00
2023-05-14T13:00:54.343Z,6.20
2023-05-14T13:01:54.224Z,5.20
2023-05-14T13:02:54.266Z,5.70
2023-05-14T13:03:54.252Z,4.80
2023-05-14T13:04:54.234Z,5.60
2023-05-14T13:05:54.199Z,4.60
2023-05-14T13:06:54.210Z,6.20